Time;durP1;ratioP1;P1;durP2;ratioP2;P2;SDS_P1;SDS_P2;PMS_P1;PMS_P2;Temp;Humidity;BMP_temperature;BMP_pressure;BME280_temperature;BME280_humidity;BME280_pressure;Samples;Min_cycle;Max_cycle;Signal;HPM_P1;HPM_P2
2022/11/04 00:01:50;;;;;;;;;;;;;;;;;;5092509;28;2557;-44
2022/11/04 00:04:18;;;;;;;;;;;;;;;;;;5092557;28;1825;-46
2022/11/04 00:06:46;;;;;;;;;;;;;;;;;;5092217;28;1562;-47
2022/11/04 00:09:21;;;;;;;;;;;;;;;;;;5092703;28;1958;-48
2022/11/04 00:14:34;;;;;;;;;;;;;;;;;;5092494;28;1977;-45
2022/11/04 00:17:18;;;;;;;;;;;;;;;;;;5092399;28;2044;-45
2022/11/04 00:30:55;;;;;;;;;;;;;;;;;;5092101;28;1957;-45
2022/11/04 00:33:25;;;;;;;;;;;;;;;;;;5091695;28;1994;-47
2022/11/04 00:35:53;;;;;;;;;;;;;;;;;;5091853;28;1689;-44
2022/11/04 00:38:21;;;;;;;;;;;;;;;;;;5091954;28;1636;-45
2022/11/04 00:40:48;;;;;;;;;;;;;;;;;;5091851;28;1882;-45
2022/11/04 00:43:15;;;;;;;;;;;;;;;;;;5091952;28;1782;-46
2022/11/04 00:45:42;;;;;;;;;;;;;;;;;;5091686;28;2204;-46
2022/11/04 00:48:10;;;;;;;;;;;;;;;;;;5091652;28;2323;-47
2022/11/04 00:50:38;;;;;;;;;;;;;;;;;;5091960;28;2169;-44
2022/11/04 00:53:07;;;;;;;;;;;;;;;;;;5091677;28;2284;-46
2022/11/04 00:55:36;;;;;;;;;;;;;;;;;;5091902;28;1924;-49
2022/11/04 00:58:04;;;;;;;;;;;;;;;;;;5091631;28;1812;-45
2022/11/04 01:00:32;;;;;;;;;;;;;;;;;;5091423;28;2262;-48
2022/11/04 01:03:01;;;;;;;;;;;;;;;;;;5091479;28;1651;-47
2022/11/04 01:05:29;;;;;;;;;;;;;;;;;;5091317;28;1748;-46
2022/11/04 01:07:56;;;;;;;;;;;;;;;;;;5091409;28;1691;-46
2022/11/04 01:10:23;;;;;;;;;;;;;;;;;;5091461;28;1971;-46
2022/11/04 01:12:50;;;;;;;;;;;;;;;;;;5099549;28;2233;-47
2022/11/04 01:15:18;;;;;;;;;;;;;;;;;;5111594;28;1914;-45
2022/11/04 01:17:45;;;;;;;;;;;;;;;;;;5111975;28;2267;-45
2022/11/04 01:20:12;;;;;;;;;;;;;;;;;;5111566;28;2137;-45
2022/11/04 01:22:40;;;;;;;;;;;;;;;;;;5111919;28;2234;-47
2022/11/04 01:25:08;;;;;;;;;;;;;;;;;;5111724;28;1886;-44
2022/11/04 01:27:35;;;;;;;;;;;;;;;;;;5111630;28;1274;-45
2022/11/04 01:30:02;;;;;;;;;;;;;;;;;;5111455;28;2004;-44
2022/11/04 01:32:29;;;;;;;;;;;;;;;;;;5111772;28;1776;-46
2022/11/04 01:34:57;;;;;;;;;;;;;;;;;;5111369;28;1910;-48
2022/11/04 01:37:24;;;;;;;;;;;;;;;;;;5113136;28;2064;-45
2022/11/04 01:39:51;;;;;;;;;;;;;;;;;;5115652;28;2050;-48
2022/11/04 01:42:20;;;;;;;;;;;;;;;;;;5114084;28;2139;-45
2022/11/04 01:44:50;;;;;;;;;;;;;;;;;;5114191;28;2063;-45
2022/11/04 01:47:40;;;;;;;;;;;;;;;;;;5115513;28;1783;-46
2022/11/04 01:50:10;;;;;;;;;;;;;;;;;;5112677;28;1983;-45
2022/11/04 01:52:37;;;;;;;;;;;;;;;;;;5095159;28;1647;-47
2022/11/04 01:55:07;;;;;;;;;;;;;;;;;;5094811;28;1993;-48
2022/11/04 01:57:37;;;;;;;;;;;;;;;;;;5094992;28;1672;-47
2022/11/04 02:00:05;;;;;;;;;;;;;;;;;;5095119;28;1366;-48
2022/11/04 02:02:49;;;;;;;;;;;;;;;;;;5095082;28;1967;-46
2022/11/04 02:05:16;;;;;;;;;;;;;;;;;;5094632;28;1699;-46
2022/11/04 02:07:48;;;;;;;;;;;;;;;;;;5094832;28;1956;-45
2022/11/04 02:10:15;;;;;;;;;;;;;;;;;;5094531;28;2209;-48
2022/11/04 02:12:48;;;;;;;;;;;;;;;;;;5094769;28;2251;-48
2022/11/04 02:15:24;;;;;;;;;;;;;;;;;;5094531;28;1971;-48
2022/11/04 02:18:09;;;;;;;;;;;;;;;;;;5094581;28;1818;-49
2022/11/04 02:20:36;;;;;;;;;;;;;;;;;;5094621;28;1407;-49
2022/11/04 02:23:22;;;;;;;;;;;;;;;;;;5094329;28;1969;-49
2022/11/04 02:26:12;;;;;;;;;;;;;;;;;;5094451;28;2051;-48
2022/11/04 02:28:58;;;;;;;;;;;;;;;;;;5084078;28;1501;-48
2022/11/04 02:31:33;;;;;;;;;;;;;;;;;;5094450;28;2185;-48
2022/11/04 02:34:06;;;;;;;;;;;;;;;;;;5094391;28;1929;-47
2022/11/04 02:36:42;;;;;;;;;;;;;;;;;;5094043;28;1808;-48
2022/11/04 02:39:15;;;;;;;;;;;;;;;;;;5094316;28;2142;-48
2022/11/04 02:41:52;;;;;;;;;;;;;;;;;;5094207;28;2007;-45
2022/11/04 02:44:31;;;;;;;;;;;;;;;;;;5093849;28;1695;-46
2022/11/04 02:47:06;;;;;;;;;;;;;;;;;;5093975;28;1689;-47
2022/11/04 02:49:46;;;;;;;;;;;;;;;;;;5091286;28;2044;-46
2022/11/04 02:52:16;;;;;;;;;;;;;;;;;;5111793;28;2146;-48
2022/11/04 02:54:46;;;;;;;;;;;;;;;;;;5114295;28;2132;-46
2022/11/04 02:57:18;;;;;;;;;;;;;;;;;;5114337;28;1524;-44
2022/11/04 02:59:48;;;;;;;;;;;;;;;;;;5114402;28;1891;-46
2022/11/04 03:02:20;;;;;;;;;;;;;;;;;;5114488;27;2209;-46
2022/11/04 03:04:49;;;;;;;;;;;;;;;;;;5113902;28;1813;-45
2022/11/04 03:07:18;;;;;;;;;;;;;;;;;;5114097;28;1811;-45
2022/11/04 03:09:49;;;;;;;;;;;;;;;;;;5114041;28;1264;-46
2022/11/04 03:12:18;;;;;;;;;;;;;;;;;;5114152;28;1941;-44
2022/11/04 03:14:47;;;;;;;;;;;;;;;;;;5114090;28;1906;-46
2022/11/04 03:17:18;;;;;;;;;;;;;;;;;;5114178;27;1167;-47
2022/11/04 03:19:58;;;;;;;;;;;;;;;;;;5113888;28;1849;-49
2022/11/04 03:22:28;;;;;;;;;;;;;;;;;;5113600;28;1435;-47
2022/11/04 03:24:55;;;;;;;;;;;;;;;;;;5113866;28;1821;-47
2022/11/04 03:27:31;;;;;;;;;;;;;;;;;;5113665;28;1991;-45
2022/11/04 03:30:02;;;;;;;;;;;;;;;;;;5113635;28;2035;-47
2022/11/04 03:32:49;;;;;;;;;;;;;;;;;;5113687;28;1971;-47
2022/11/04 03:35:16;;;;;;;;;;;;;;;;;;5113587;28;1967;-46
2022/11/04 03:37:44;;;;;;;;;;;;;;;;;;5113652;28;1821;-49
2022/11/04 03:40:11;;;;;;;;;;;;;;;;;;5113411;28;1931;-47
2022/11/04 03:42:42;;;;;;;;;;;;;;;;;;5113459;28;1543;-46
2022/11/04 03:45:10;;;;;;;;;;;;;;;;;;5113147;28;1841;-46
2022/11/04 03:47:37;;;;;;;;;;;;;;;;;;5113247;28;1929;-47
2022/11/04 03:50:11;;;;;;;;;;;;;;;;;;5113244;28;1556;-46
2022/11/04 03:52:38;;;;;;;;;;;;;;;;;;5092589;28;1971;-46
2022/11/04 03:55:07;;;;;;;;;;;;;;;;;;5092663;28;2030;-45
2022/11/04 03:57:41;;;;;;;;;;;;;;;;;;5092389;28;1699;-46
2022/11/04 04:00:12;;;;;;;;;;;;;;;;;;5092251;28;2093;-47
2022/11/04 04:02:58;;;;;;;;;;;;;;;;;;5092511;28;1451;-47
2022/11/04 04:05:48;;;;;;;;;;;;;;;;;;5092428;28;1944;-46
2022/11/04 04:08:34;;;;;;;;;;;;;;;;;;5089752;28;1890;-46
2022/11/04 04:11:09;;;;;;;;;;;;;;;;;;5092295;28;1810;-46
2022/11/04 04:13:39;;;;;;;;;;;;;;;;;;5092540;28;1769;-46
2022/11/04 04:16:18;;;;;;;;;;;;;;;;;;5092170;28;1983;-46
2022/11/04 04:18:51;;;;;;;;;;;;;;;;;;5092608;28;2099;-44
2022/11/04 04:21:23;;;;;;;;;;;;;;;;;;5092535;28;1708;-43
2022/11/04 04:29:23;;;;;;;;;;;;;;;;;;5111162;28;2505;-45
2022/11/04 04:31:56;;;;;;;;;;;;;;;;;;5112427;28;1979;-45
2022/11/04 04:34:28;;;;;;;;;;;;;;;;;;5112393;28;2261;-49
2022/11/04 04:36:58;;;;;;;;;;;;;;;;;;5112064;28;1834;-45
2022/11/04 04:45:02;;;;;;;;;;;;;;;;;;5112242;28;1915;-45
2022/11/04 04:47:34;;;;;;;;;;;;;;;;;;5111646;28;1963;-47
2022/11/04 04:50:01;;;;;;;;;;;;;;;;;;5112164;28;1950;-44
2022/11/04 04:52:30;;;;;;;;;;;;;;;;;;5092310;28;1958;-44
2022/11/04 04:54:57;;;;;;;;;;;;;;;;;;5090435;28;1967;-46
2022/11/04 04:57:24;;;;;;;;;;;;;;;;;;5091556;28;2132;-45
2022/11/04 04:59:51;;;;;;;;;;;;;;;;;;5091891;28;2232;-48
2022/11/04 05:02:18;;;;;;;;;;;;;;;;;;5091472;28;1923;-44
2022/11/04 05:04:46;;;;;;;;;;;;;;;;;;5091479;28;2090;-46
2022/11/04 05:07:13;;;;;;;;;;;;;;;;;;5091671;28;2133;-45
2022/11/04 05:09:40;;;;;;;;;;;;;;;;;;5091624;28;1448;-48
2022/11/04 05:12:08;;;;;;;;;;;;;;;;;;5090729;28;2127;-47
2022/11/04 05:14:35;;;;;;;;;;;;;;;;;;5091274;28;1910;-47
2022/11/04 05:17:02;;;;;;;;;;;;;;;;;;5091207;28;1921;-45
2022/11/04 05:19:29;;;;;;;;;;;;;;;;;;5091306;28;2156;-45
2022/11/04 05:21:56;;;;;;;;;;;;;;;;;;5091414;28;1436;-44
2022/11/04 05:24:24;;;;;;;;;;;;;;;;;;5091452;28;1865;-45
2022/11/04 05:26:51;;;;;;;;;;;;;;;;;;5091492;28;1733;-46
2022/11/04 05:29:18;;;;;;;;;;;;;;;;;;5090992;28;1776;-48
2022/11/04 05:31:45;;;;;;;;;;;;;;;;;;5091279;28;1821;-47
2022/11/04 05:34:12;;;;;;;;;;;;;;;;;;5091417;28;1946;-46
2022/11/04 05:36:39;;;;;;;;;;;;;;;;;;5091194;28;2146;-46
2022/11/04 05:39:07;;;;;;;;;;;;;;;;;;5090999;28;1853;-45
2022/11/04 05:41:34;;;;;;;;;;;;;;;;;;5091049;28;1761;-49
2022/11/04 05:44:01;;;;;;;;;;;;;;;;;;5091179;28;2034;-45
2022/11/04 05:46:29;;;;;;;;;;;;;;;;;;5091046;28;2099;-49
2022/11/04 05:48:56;;;;;;;;;;;;;;;;;;5091445;28;1993;-47
2022/11/04 05:51:24;;;;;;;;;;;;;;;;;;5091160;28;1882;-44
2022/11/04 05:53:52;;;;;;;;;;;;;;;;;;5090960;28;2102;-46
2022/11/04 05:56:19;;;;;;;;;;;;;;;;;;5090779;28;2430;-46
2022/11/04 05:58:46;;;;;;;;;;;;;;;;;;5091112;28;1985;-46
2022/11/04 06:01:24;;;;;;;;;;;;;;;;;;5090922;28;1958;-48
2022/11/04 06:03:51;;;;;;;;;;;;;;;;;;5090911;28;1802;-47
2022/11/04 06:06:19;;;;;;;;;;;;;;;;;;5090449;28;2057;-46
2022/11/04 06:08:46;;;;;;;;;;;;;;;;;;5090894;28;2106;-46
2022/11/04 06:11:13;;;;;;;;;;;;;;;;;;5090953;28;1640;-46
2022/11/04 06:13:40;;;;;;;;;;;;;;;;;;5090812;28;1734;-46
2022/11/04 06:16:07;;;;;;;;;;;;;;;;;;5090651;28;1906;-47
2022/11/04 06:18:34;;;;;;;;;;;;;;;;;;5090719;28;2170;-48
2022/11/04 06:21:28;;;;;;;;;;;;;;;;;;5090787;28;1807;-44
2022/11/04 06:23:56;;;;;;;;;;;;;;;;;;5092267;28;2056;-48
2022/11/04 06:26:24;;;;;;;;;;;;;;;;;;5094472;28;1976;-47
2022/11/04 06:28:54;;;;;;;;;;;;;;;;;;5094421;28;1950;-45
2022/11/04 06:31:21;;;;;;;;;;;;;;;;;;5094354;28;1790;-45
2022/11/04 06:33:48;;;;;;;;;;;;;;;;;;5093096;28;1868;-46
2022/11/04 06:36:16;;;;;;;;;;;;;;;;;;5094318;28;1914;-47
2022/11/04 06:38:44;;;;;;;;;;;;;;;;;;5094160;28;2084;-46
2022/11/04 06:41:12;;;;;;;;;;;;;;;;;;5094152;28;1453;-46
2022/11/04 06:43:40;;;;;;;;;;;;;;;;;;5093869;28;2144;-45
2022/11/04 06:46:22;;;;;;;;;;;;;;;;;;5094051;28;1953;-46
2022/11/04 06:48:49;;;;;;;;;;;;;;;;;;5094018;28;1943;-46
2022/11/04 06:51:16;;;;;;;;;;;;;;;;;;5102577;28;2215;-45
2022/11/04 06:53:43;;;;;;;;;;;;;;;;;;5113467;28;2323;-45
2022/11/04 06:56:10;;;;;;;;;;;;;;;;;;5113449;28;1913;-46
2022/11/04 06:58:37;;;;;;;;;;;;;;;;;;5113651;28;2090;-47
2022/11/04 07:01:04;;;;;;;;;;;;;;;;;;5113315;28;1911;-44
2022/11/04 07:03:39;;;;;;;;;;;;;;;;;;5113673;28;2102;-46
2022/11/04 07:06:07;;;;;;;;;;;;;;;;;;5113572;27;2090;-47
2022/11/04 07:08:34;;;;;;;;;;;;;;;;;;5114061;28;2071;-47
2022/11/04 07:11:02;;;;;;;;;;;;;;;;;;5114278;28;1955;-47
2022/11/04 07:13:29;;;;;;;;;;;;;;;;;;5114132;28;1678;-44
2022/11/04 07:15:56;;;;;;;;;;;;;;;;;;5113859;28;1988;-45
2022/11/04 07:18:23;;;;;;;;;;;;;;;;;;5098690;28;2151;-45
2022/11/04 07:20:50;;;;;;;;;;;;;;;;;;5093447;28;2037;-46
2022/11/04 07:23:18;;;;;;;;;;;;;;;;;;5093477;28;1952;-45
2022/11/04 07:25:45;;;;;;;;;;;;;;;;;;5093477;28;2062;-43
2022/11/04 07:28:12;;;;;;;;;;;;;;;;;;5093276;28;2129;-45
2022/11/04 07:30:39;;;;;;;;;;;;;;;;;;5093372;28;2206;-42
2022/11/04 07:33:06;;;;;;;;;;;;;;;;;;5091889;28;1821;-46
2022/11/04 07:35:34;;;;;;;;;;;;;;;;;;5092439;28;2102;-44
2022/11/04 07:38:02;;;;;;;;;;;;;;;;;;5093226;28;1870;-45
2022/11/04 07:40:30;;;;;;;;;;;;;;;;;;5093209;28;1827;-43
2022/11/04 07:42:57;;;;;;;;;;;;;;;;;;5092978;28;2176;-46
2022/11/04 07:45:34;;;;;;;;;;;;;;;;;;5091932;28;2051;-44
2022/11/04 07:48:01;;;;;;;;;;;;;;;;;;5092969;28;1997;-46
2022/11/04 07:50:28;;;;;;;;;;;;;;;;;;5095749;28;1660;-45
2022/11/04 07:52:55;;;;;;;;;;;;;;;;;;5113206;27;1952;-47
2022/11/04 07:55:22;;;;;;;;;;;;;;;;;;5113091;28;1905;-46
2022/11/04 07:57:49;;;;;;;;;;;;;;;;;;5113147;28;2253;-46
2022/11/04 08:00:16;;;;;;;;;;;;;;;;;;5113104;28;1827;-47
2022/11/04 08:02:45;;;;;;;;;;;;;;;;;;5113080;27;1909;-44
2022/11/04 08:05:13;;;;;;;;;;;;;;;;;;5112796;28;1451;-46
2022/11/04 08:07:41;;;;;;;;;;;;;;;;;;5112796;28;1830;-47
2022/11/04 08:10:08;;;;;;;;;;;;;;;;;;5112675;28;1793;-47
2022/11/04 08:12:37;;;;;;;;;;;;;;;;;;5112924;28;1978;-46
2022/11/04 08:15:04;;;;;;;;;;;;;;;;;;5112830;28;1987;-45
2022/11/04 08:17:32;;;;;;;;;;;;;;;;;;5112967;28;1841;-47
2022/11/04 08:19:59;;;;;;;;;;;;;;;;;;5112763;28;1991;-45
2022/11/04 08:22:26;;;;;;;;;;;;;;;;;;5112616;28;1837;-45
2022/11/04 08:24:58;;;;;;;;;;;;;;;;;;5112670;28;1860;-45
2022/11/04 08:27:25;;;;;;;;;;;;;;;;;;5112399;28;2144;-45
2022/11/04 08:29:52;;;;;;;;;;;;;;;;;;5097463;28;1962;-48
2022/11/04 08:32:19;;;;;;;;;;;;;;;;;;5091825;28;1857;-47
2022/11/04 08:34:47;;;;;;;;;;;;;;;;;;5092049;28;2211;-47
2022/11/04 08:37:15;;;;;;;;;;;;;;;;;;5092041;28;2198;-44
2022/11/04 08:39:42;;;;;;;;;;;;;;;;;;5091746;28;1937;-45
2022/11/04 08:42:09;;;;;;;;;;;;;;;;;;5091819;28;2100;-49
2022/11/04 08:44:38;;;;;;;;;;;;;;;;;;5091957;28;2018;-47
2022/11/04 08:47:05;;;;;;;;;;;;;;;;;;5089864;28;2110;-45
2022/11/04 08:49:36;;;;;;;;;;;;;;;;;;5091886;28;1477;-45
2022/11/04 08:52:04;;;;;;;;;;;;;;;;;;5091968;28;1885;-45
2022/11/04 08:54:31;;;;;;;;;;;;;;;;;;5091826;28;1900;-44
2022/11/04 08:56:58;;;;;;;;;;;;;;;;;;5091560;28;1993;-46
2022/11/04 08:59:25;;;;;;;;;;;;;;;;;;5091950;28;2026;-44
2022/11/04 09:01:52;;;;;;;;;;;;;;;;;;5091657;28;1522;-47
2022/11/04 09:04:19;;;;;;;;;;;;;;;;;;5091536;28;2115;-44
2022/11/04 09:06:47;;;;;;;;;;;;;;;;;;5091441;28;1430;-47
2022/11/04 09:09:15;;;;;;;;;;;;;;;;;;5091540;28;1488;-46
2022/11/04 09:11:42;;;;;;;;;;;;;;;;;;5091364;28;1812;-45
2022/11/04 09:14:12;;;;;;;;;;;;;;;;;;5091552;28;1887;-46
2022/11/04 09:16:40;;;;;;;;;;;;;;;;;;5091154;28;1980;-45
2022/11/04 09:19:07;;;;;;;;;;;;;;;;;;5091653;28;1708;-44
2022/11/04 09:21:35;;;;;;;;;;;;;;;;;;5091498;28;1412;-48
2022/11/04 09:24:02;;;;;;;;;;;;;;;;;;5091298;28;2020;-47
2022/11/04 09:26:30;;;;;;;;;;;;;;;;;;5091191;28;1688;-45
2022/11/04 09:28:59;;;;;;;;;;;;;;;;;;5091060;28;1874;-46
2022/11/04 09:31:28;;;;;;;;;;;;;;;;;;5091251;28;2250;-49
2022/11/04 09:33:55;;;;;;;;;;;;;;;;;;5090052;28;1571;-45
2022/11/04 09:36:24;;;;;;;;;;;;;;;;;;5091166;28;1913;-47
2022/11/04 09:38:51;;;;;;;;;;;;;;;;;;5091216;28;1821;-46
2022/11/04 09:41:24;;;;;;;;;;;;;;;;;;5091031;28;1491;-47
2022/11/04 09:43:54;;;;;;;;;;;;;;;;;;5091325;28;1641;-46
2022/11/04 09:46:22;;;;;;;;;;;;;;;;;;5091128;28;1771;-48
2022/11/04 09:48:52;;;;;;;;;;;;;;;;;;5091078;28;1969;-47
2022/11/04 09:51:20;;;;;;;;;;;;;;;;;;5101121;28;1773;-46
2022/11/04 09:54:11;;;;;;;;;;;;;;;;;;5111318;28;1287;-47
2022/11/04 09:56:41;;;;;;;;;;;;;;;;;;5111593;28;1983;-45
2022/11/04 09:59:09;;;;;;;;;;;;;;;;;;5114495;28;2145;-47
2022/11/04 10:01:41;;;;;;;;;;;;;;;;;;5115524;28;1986;-47
2022/11/04 10:04:11;;;;;;;;;;;;;;;;;;5115410;28;1976;-47
2022/11/04 10:06:41;;;;;;;;;;;;;;;;;;5115261;28;2090;-47
2022/11/04 10:09:20;;;;;;;;;;;;;;;;;;5115386;28;2200;-46
2022/11/04 10:11:55;;;;;;;;;;;;;;;;;;5114982;28;1838;-49
2022/11/04 10:14:28;;;;;;;;;;;;;;;;;;5115163;28;2085;-48
2022/11/04 10:17:01;;;;;;;;;;;;;;;;;;5114826;28;1937;-44
2022/11/04 10:19:46;;;;;;;;;;;;;;;;;;5113767;28;2002;-47
2022/11/04 10:22:21;;;;;;;;;;;;;;;;;;5115200;28;1645;-44
2022/11/04 10:24:58;;;;;;;;;;;;;;;;;;5114722;28;1921;-46
2022/11/04 10:27:28;;;;;;;;;;;;;;;;;;5114889;28;1536;-48
2022/11/04 10:29:59;;;;;;;;;;;;;;;;;;5114822;28;1777;-47
2022/11/04 10:32:34;;;;;;;;;;;;;;;;;;5115035;28;1541;-46
2022/11/04 10:35:03;;;;;;;;;;;;;;;;;;5114520;28;2123;-47
2022/11/04 10:37:30;;;;;;;;;;;;;;;;;;5114711;28;1897;-45
2022/11/04 10:40:14;;;;;;;;;;;;;;;;;;5114412;28;2050;-47
2022/11/04 10:42:41;;;;;;;;;;;;;;;;;;5114791;27;1830;-48
2022/11/04 10:45:12;;;;;;;;;;;;;;;;;;5114410;28;1581;-47
2022/11/04 10:47:49;;;;;;;;;;;;;;;;;;5114734;28;2056;-48
2022/11/04 10:50:37;;;;;;;;;;;;;;;;;;5111542;28;1885;-45
2022/11/04 10:53:11;;;;;;;;;;;;;;;;;;5093773;28;1994;-45
2022/11/04 10:55:46;;;;;;;;;;;;;;;;;;5094006;28;2034;-45
2022/11/04 10:58:27;;;;;;;;;;;;;;;;;;5094070;28;1675;-46
2022/11/04 11:00:56;;;;;;;;;;;;;;;;;;5093692;28;1819;-44
2022/11/04 11:03:25;;;;;;;;;;;;;;;;;;5093801;28;2161;-46
2022/11/04 11:05:53;;;;;;;;;;;;;;;;;;5093785;28;1933;-44
2022/11/04 11:08:31;;;;;;;;;;;;;;;;;;5093816;28;1698;-45
2022/11/04 11:10:58;;;;;;;;;;;;;;;;;;5092517;28;2141;-47
2022/11/04 11:13:27;;;;;;;;;;;;;;;;;;5093928;28;1813;-45
2022/11/04 11:16:04;;;;;;;;;;;;;;;;;;5093516;28;2505;-47
2022/11/04 11:18:31;;;;;;;;;;;;;;;;;;5093622;28;2122;-50
2022/11/04 11:21:04;;;;;;;;;;;;;;;;;;5093318;28;2031;-45
2022/11/04 11:23:33;;;;;;;;;;;;;;;;;;5092178;28;1824;-46
2022/11/04 11:26:01;;;;;;;;;;;;;;;;;;5093312;28;1758;-51
2022/11/04 11:28:29;;;;;;;;;;;;;;;;;;5093295;28;2100;-48
2022/11/04 11:31:00;;;;;;;;;;;;;;;;;;5093233;28;1919;-45
2022/11/04 11:33:30;;;;;;;;;;;;;;;;;;5093318;28;1953;-47
2022/11/04 11:36:10;;;;;;;;;;;;;;;;;;5093143;28;2182;-48
2022/11/04 11:38:58;;;;;;;;;;;;;;;;;;5093201;28;1683;-47
2022/11/04 11:41:30;;;;;;;;;;;;;;;;;;5092863;28;1743;-46
2022/11/04 11:44:06;;;;;;;;;;;;;;;;;;5092977;28;1571;-47
2022/11/04 11:46:35;;;;;;;;;;;;;;;;;;5092584;28;2153;-48
2022/11/04 11:49:03;;;;;;;;;;;;;;;;;;5092987;28;1974;-47
2022/11/04 11:51:32;;;;;;;;;;;;;;;;;;5092744;28;2039;-44
2022/11/04 11:54:18;;;;;;;;;;;;;;;;;;5092944;28;2002;-49
2022/11/04 11:56:49;;;;;;;;;;;;;;;;;;5092746;28;1910;-45
2022/11/04 11:59:52;;;;;;;;;;;;;;;;;;5092734;28;2065;-47
2022/11/04 12:02:55;;;;;;;;;;;;;;;;;;5092515;28;2111;-45
2022/11/04 12:05:29;;;;;;;;;;;;;;;;;;5092624;28;1872;-46
2022/11/04 12:08:25;;;;;;;;;;;;;;;;;;5092671;28;1927;-46
2022/11/04 12:11:15;;;;;;;;;;;;;;;;;;5092293;28;1789;-48
2022/11/04 12:13:51;;;;;;;;;;;;;;;;;;5092602;28;1905;-48
2022/11/04 12:16:25;;;;;;;;;;;;;;;;;;5091197;28;2874;-48
2022/11/04 12:19:03;;;;;;;;;;;;;;;;;;5092475;28;2105;-47
2022/11/04 12:21:42;;;;;;;;;;;;;;;;;;5091957;28;2170;-46
2022/11/04 12:24:34;;;;;;;;;;;;;;;;;;5092416;28;1248;-45
2022/11/04 12:27:13;;;;;;;;;;;;;;;;;;5089726;28;2186;-47
2022/11/04 12:29:49;;;;;;;;;;;;;;;;;;5092118;28;1947;-48
2022/11/04 12:32:22;;;;;;;;;;;;;;;;;;5091953;28;2065;-45
2022/11/04 12:34:55;;;;;;;;;;;;;;;;;;5092303;28;1944;-48
2022/11/04 12:37:40;;;;;;;;;;;;;;;;;;5092178;28;2165;-44
2022/11/04 12:40:14;;;;;;;;;;;;;;;;;;5091956;28;2090;-45
2022/11/04 12:42:43;;;;;;;;;;;;;;;;;;5091910;28;1931;-46
2022/11/04 12:45:20;;;;;;;;;;;;;;;;;;5091809;28;2098;-48
2022/11/04 12:47:48;;;;;;;;;;;;;;;;;;5091821;28;1647;-45
2022/11/04 12:50:34;;;;;;;;;;;;;;;;;;5092793;28;1857;-44
2022/11/04 12:53:01;;;;;;;;;;;;;;;;;;5112092;28;1836;-46
2022/11/04 12:55:36;;;;;;;;;;;;;;;;;;5112233;28;1800;-49
2022/11/04 12:58:14;;;;;;;;;;;;;;;;;;5112089;27;1985;-47
2022/11/04 13:00:41;;;;;;;;;;;;;;;;;;5111941;27;2113;-46
2022/11/04 13:03:17;;;;;;;;;;;;;;;;;;5111940;28;1785;-46
2022/11/04 13:05:44;;;;;;;;;;;;;;;;;;5111556;27;2316;-48
2022/11/04 13:08:18;;;;;;;;;;;;;;;;;;5111746;28;1685;-47
2022/11/04 13:10:52;;;;;;;;;;;;;;;;;;5111624;28;2053;-45
2022/11/04 13:13:28;;;;;;;;;;;;;;;;;;5111754;28;1825;-49
2022/11/04 13:15:59;;;;;;;;;;;;;;;;;;5111318;28;1706;-48
2022/11/04 13:18:29;;;;;;;;;;;;;;;;;;5111566;28;2237;-46
2022/11/04 13:21:08;;;;;;;;;;;;;;;;;;5111461;28;1743;-46
2022/11/04 13:23:38;;;;;;;;;;;;;;;;;;5111748;28;1727;-48
2022/11/04 13:26:10;;;;;;;;;;;;;;;;;;5111588;28;1713;-45
2022/11/04 13:28:40;;;;;;;;;;;;;;;;;;5111711;28;2041;-47
2022/11/04 13:31:13;;;;;;;;;;;;;;;;;;5111502;28;1852;-48
2022/11/04 13:33:40;;;;;;;;;;;;;;;;;;5116533;28;1709;-48
2022/11/04 13:36:26;;;;;;;;;;;;;;;;;;5118268;27;2072;-48
2022/11/04 13:39:13;;;;;;;;;;;;;;;;;;5118284;27;1700;-46
2022/11/04 13:41:47;;;;;;;;;;;;;;;;;;5113939;28;2114;-47
2022/11/04 13:44:18;;;;;;;;;;;;;;;;;;5118120;27;1517;-47
2022/11/04 13:46:51;;;;;;;;;;;;;;;;;;5118349;27;2137;-47
2022/11/04 13:49:37;;;;;;;;;;;;;;;;;;5117829;27;1249;-48
2022/11/04 13:52:06;;;;;;;;;;;;;;;;;;5101749;27;1908;-47
2022/11/04 13:54:56;;;;;;;;;;;;;;;;;;5097706;28;2052;-49
2022/11/04 13:57:28;;;;;;;;;;;;;;;;;;5095087;28;2004;-47
2022/11/04 14:00:11;;;;;;;;;;;;;;;;;;5097842;28;2034;-44
2022/11/04 14:02:40;;;;;;;;;;;;;;;;;;5097655;28;1711;-45
2022/11/04 14:05:25;;;;;;;;;;;;;;;;;;5097691;28;2016;-45
2022/11/04 14:07:59;;;;;;;;;;;;;;;;;;5097667;28;1888;-47
2022/11/04 14:10:35;;;;;;;;;;;;;;;;;;5097649;28;1612;-46
2022/11/04 14:13:21;;;;;;;;;;;;;;;;;;5097618;28;2007;-44
2022/11/04 14:16:02;;;;;;;;;;;;;;;;;;5097864;28;1920;-48
2022/11/04 14:18:29;;;;;;;;;;;;;;;;;;5097378;28;2282;-46
2022/11/04 14:21:11;;;;;;;;;;;;;;;;;;5097809;28;2344;-47
2022/11/04 14:23:40;;;;;;;;;;;;;;;;;;5097681;28;2013;-44
2022/11/04 14:26:08;;;;;;;;;;;;;;;;;;5097035;28;2060;-46
2022/11/04 14:28:36;;;;;;;;;;;;;;;;;;5097574;28;1784;-45
2022/11/04 14:31:05;;;;;;;;;;;;;;;;;;5097368;28;1947;-45
2022/11/04 14:33:32;;;;;;;;;;;;;;;;;;5097546;28;1946;-47
2022/11/04 14:36:18;;;;;;;;;;;;;;;;;;5097730;28;1819;-47
2022/11/04 14:39:05;;;;;;;;;;;;;;;;;;5097395;28;2193;-48
2022/11/04 14:41:38;;;;;;;;;;;;;;;;;;5096986;28;1685;-49
2022/11/04 14:44:11;;;;;;;;;;;;;;;;;;5096416;28;1223;-46
2022/11/04 14:46:45;;;;;;;;;;;;;;;;;;5092910;28;1822;-48
2022/11/04 14:49:25;;;;;;;;;;;;;;;;;;5094128;28;1496;-48
2022/11/04 14:51:53;;;;;;;;;;;;;;;;;;5093862;28;1836;-47
2022/11/04 14:54:21;;;;;;;;;;;;;;;;;;5094098;28;2049;-47
2022/11/04 14:56:48;;;;;;;;;;;;;;;;;;5094052;28;2145;-47
2022/11/04 14:59:26;;;;;;;;;;;;;;;;;;5098881;28;1704;-46
2022/11/04 15:01:54;;;;;;;;;;;;;;;;;;5114228;27;2058;-46
2022/11/04 15:04:28;;;;;;;;;;;;;;;;;;5114037;28;1707;-49
2022/11/04 15:06:56;;;;;;;;;;;;;;;;;;5113953;28;1867;-46
2022/11/04 15:09:24;;;;;;;;;;;;;;;;;;5114100;28;1911;-49
2022/11/04 15:14:54;;;;;;;;;;;;;;;;;;5113929;28;1696;-46
2022/11/04 15:17:22;;;;;;;;;;;;;;;;;;5113706;28;1989;-47
2022/11/04 15:19:50;;;;;;;;;;;;;;;;;;5114070;28;1830;-48
2022/11/04 15:22:18;;;;;;;;;;;;;;;;;;5113769;28;1642;-48
2022/11/04 15:24:45;;;;;;;;;;;;;;;;;;5113850;27;1832;-45
2022/11/04 15:27:14;;;;;;;;;;;;;;;;;;5113533;28;1657;-46
2022/11/04 15:30:01;;;;;;;;;;;;;;;;;;5113722;28;1990;-47
2022/11/04 15:32:29;;;;;;;;;;;;;;;;;;5113881;28;1996;-49
2022/11/04 15:34:56;;;;;;;;;;;;;;;;;;5113512;28;2066;-48
2022/11/04 15:37:24;;;;;;;;;;;;;;;;;;5113355;28;1955;-49
2022/11/04 15:39:54;;;;;;;;;;;;;;;;;;5113265;28;2106;-51
2022/11/04 15:45:28;;;;;;;;;;;;;;;;;;5112270;28;1987;-48
2022/11/04 15:48:14;;;;;;;;;;;;;;;;;;5113487;28;1952;-47
2022/11/04 15:50:42;;;;;;;;;;;;;;;;;;5108773;28;1910;-48
2022/11/04 15:53:09;;;;;;;;;;;;;;;;;;5092917;28;1748;-46
2022/11/04 15:55:38;;;;;;;;;;;;;;;;;;5092309;28;2276;-44
2022/11/04 15:58:08;;;;;;;;;;;;;;;;;;5092792;28;1906;-47
2022/11/04 16:00:35;;;;;;;;;;;;;;;;;;5092431;28;2141;-47
2022/11/04 16:03:03;;;;;;;;;;;;;;;;;;5092870;28;1930;-46
2022/11/04 16:05:36;;;;;;;;;;;;;;;;;;5092262;28;1633;-47
2022/11/04 16:08:20;;;;;;;;;;;;;;;;;;5092808;28;2187;-48
2022/11/04 16:10:47;;;;;;;;;;;;;;;;;;5092427;28;1931;-47
2022/11/04 16:13:17;;;;;;;;;;;;;;;;;;5092339;28;1730;-47
2022/11/04 16:15:47;;;;;;;;;;;;;;;;;;5092559;28;1859;-47
2022/11/04 16:18:28;;;;;;;;;;;;;;;;;;5092419;28;2009;-46
2022/11/04 16:20:56;;;;;;;;;;;;;;;;;;5092639;28;1854;-47
2022/11/04 16:23:24;;;;;;;;;;;;;;;;;;5092479;28;2151;-46
2022/11/04 16:26:00;;;;;;;;;;;;;;;;;;5092421;28;1579;-46
2022/11/04 16:28:29;;;;;;;;;;;;;;;;;;5092134;28;1939;-48
2022/11/04 16:30:57;;;;;;;;;;;;;;;;;;5092106;28;1825;-48
2022/11/04 16:33:24;;;;;;;;;;;;;;;;;;5092154;28;1777;-45
2022/11/04 16:35:51;;;;;;;;;;;;;;;;;;5092217;28;2060;-45
2022/11/04 16:38:18;;;;;;;;;;;;;;;;;;5092007;28;1917;-48
2022/11/04 16:40:48;;;;;;;;;;;;;;;;;;5091929;28;2314;-45
2022/11/04 16:43:17;;;;;;;;;;;;;;;;;;5092314;28;2075;-49
2022/11/04 16:45:46;;;;;;;;;;;;;;;;;;5091740;28;1900;-45
2022/11/04 16:48:20;;;;;;;;;;;;;;;;;;5091909;28;1801;-44
2022/11/04 16:50:47;;;;;;;;;;;;;;;;;;5097225;28;1703;-46
2022/11/04 16:53:14;;;;;;;;;;;;;;;;;;5112119;28;1850;-46
2022/11/04 16:55:42;;;;;;;;;;;;;;;;;;5112359;28;1846;-46
2022/11/04 16:58:14;;;;;;;;;;;;;;;;;;5111918;28;1906;-46
2022/11/04 17:00:41;;;;;;;;;;;;;;;;;;5112019;28;2109;-45
2022/11/04 17:03:22;;;;;;;;;;;;;;;;;;5112096;28;1607;-44
2022/11/04 17:05:50;;;;;;;;;;;;;;;;;;5097917;28;1984;-45
2022/11/04 17:08:17;;;;;;;;;;;;;;;;;;5090802;28;1674;-45
2022/11/04 17:10:44;;;;;;;;;;;;;;;;;;5091338;28;1990;-45
2022/11/04 17:13:14;;;;;;;;;;;;;;;;;;5091504;28;1950;-48
2022/11/04 17:15:45;;;;;;;;;;;;;;;;;;5091306;28;1863;-48
2022/11/04 17:18:13;;;;;;;;;;;;;;;;;;5091252;28;1987;-47
2022/11/04 17:20:41;;;;;;;;;;;;;;;;;;5091481;28;1523;-45
2022/11/04 17:23:11;;;;;;;;;;;;;;;;;;5091446;28;2097;-46
2022/11/04 17:25:39;;;;;;;;;;;;;;;;;;5091706;28;2245;-47
2022/11/04 17:28:10;;;;;;;;;;;;;;;;;;5091519;28;1413;-49
2022/11/04 17:30:37;;;;;;;;;;;;;;;;;;5091440;28;1863;-45
2022/11/04 17:33:06;;;;;;;;;;;;;;;;;;5091309;28;1549;-46
2022/11/04 17:35:35;;;;;;;;;;;;;;;;;;5091448;28;1939;-47
2022/11/04 17:38:04;;;;;;;;;;;;;;;;;;5091021;28;1898;-49
2022/11/04 17:40:31;;;;;;;;;;;;;;;;;;5090990;28;2075;-47
2022/11/04 17:46:32;;;;;;;;;;;;;;;;;;5089648;28;2391;-45
2022/11/04 17:48:32;;;;;;;;;;;;;;;;;;5090957;28;2016;-47
2022/11/04 17:50:59;;;;;;;;;;;;;;;;;;5098013;28;1764;-44
2022/11/04 17:53:26;;;;;;;;;;;;;;;;;;5111424;28;1697;-45
2022/11/04 17:55:54;;;;;;;;;;;;;;;;;;5111280;28;2044;-46
2022/11/04 17:58:21;;;;;;;;;;;;;;;;;;5111118;28;1910;-46
2022/11/04 18:00:48;;;;;;;;;;;;;;;;;;5111600;28;2264;-46
2022/11/04 18:03:15;;;;;;;;;;;;;;;;;;5111197;28;1952;-45
2022/11/04 18:05:43;;;;;;;;;;;;;;;;;;5111201;28;1801;-45